Time;durP1;ratioP1;P1;durP2;ratioP2;P2;SDS_P1;SDS_P2;PMS_P1;PMS_P2;Temp;Humidity;BMP_temperature;BMP_pressure;BME280_temperature;BME280_humidity;BME280_pressure;Samples;Min_cycle;Max_cycle;Signal;HPM_P1;HPM_P2
2022/09/12 00:02:02;;;;;;;6.10;4.80;;;;;;;11.94;100.00;98569.97;4485935;31;20128;-77
2022/09/12 00:04:30;;;;;;;8.10;4.72;;;;;;;11.88;100.00;98567.94;4490312;31;20179;-77
2022/09/12 00:06:57;;;;;;;7.15;4.37;;;;;;;11.85;100.00;98563.81;4493968;31;20441;-77
2022/09/12 00:09:24;;;;;;;5.47;4.43;;;;;;;11.79;100.00;98563.59;4484237;32;20148;-77
2022/09/12 00:11:51;;;;;;;8.82;5.22;;;;;;;11.78;100.00;98562.75;4486040;31;20097;-77
2022/09/12 00:14:18;;;;;;;6.47;5.00;;;;;;;11.71;100.00;98553.84;4486005;31;20092;-77
2022/09/12 00:16:45;;;;;;;9.52;4.53;;;;;;;11.66;100.00;98545.59;4485779;31;20157;-78
2022/09/12 00:19:13;;;;;;;7.50;5.45;;;;;;;11.67;100.00;98544.59;4485715;32;20168;-77
2022/09/12 00:21:40;;;;;;;6.20;4.68;;;;;;;11.71;100.00;98548.59;4485819;32;20106;-77
2022/09/12 00:24:08;;;;;;;6.18;4.95;;;;;;;11.78;100.00;98554.03;4485666;31;20164;-77
2022/09/12 00:26:35;;;;;;;11.77;5.80;;;;;;;11.77;100.00;98555.03;4485578;31;20495;-77
2022/09/12 00:29:02;;;;;;;7.40;5.35;;;;;;;11.74;100.00;98556.16;4485462;31;20475;-77
2022/09/12 00:31:29;;;;;;;8.35;6.03;;;;;;;11.74;100.00;98550.91;4485602;32;20093;-77
2022/09/12 00:33:59;;;;;;;8.45;5.75;;;;;;;11.74;100.00;98555.34;4485689;31;20127;-77
2022/09/12 00:36:28;;;;;;;10.05;6.28;;;;;;;11.71;100.00;98553.84;4485481;31;20118;-77
2022/09/12 00:38:56;;;;;;;9.05;5.37;;;;;;;11.69;100.00;98543.50;4485571;31;20126;-77
2022/09/12 00:41:23;;;;;;;10.90;5.60;;;;;;;11.68;100.00;98546.25;4485728;31;20148;-77
2022/09/12 00:43:52;;;;;;;7.57;5.70;;;;;;;11.67;100.00;98555.94;4485566;31;20144;-77
2022/09/12 00:46:44;;;;;;;7.47;4.65;;;;;;;11.66;100.00;98563.97;4485436;31;20100;-77
2022/09/12 00:49:22;;;;;;;7.57;5.40;;;;;;;11.68;100.00;98552.31;4485494;31;20107;-77
2022/09/12 00:51:53;;;;;;;8.48;4.65;;;;;;;11.66;100.00;98553.47;4484334;32;20520;-77
2022/09/12 00:54:25;;;;;;;8.13;5.28;;;;;;;11.59;100.00;98557.66;4485514;31;20104;-77
2022/09/12 00:56:55;;;;;;;9.05;5.50;;;;;;;11.54;100.00;98558.09;4484877;31;20110;-77
2022/09/12 00:59:33;;;;;;;6.15;4.75;;;;;;;11.51;100.00;98564.47;4485424;31;20092;-77
2022/09/12 01:02:00;;;;;;;10.13;5.12;;;;;;;11.50;100.00;98557.56;4485317;31;20534;-77
2022/09/12 01:04:28;;;;;;;8.75;5.65;;;;;;;11.51;100.00;98561.84;4489532;31;20138;-77
2022/09/12 01:06:57;;;;;;;9.85;5.45;;;;;;;11.53;100.00;98565.12;4493684;31;20122;-77
2022/09/12 01:09:24;;;;;;;8.90;5.03;;;;;;;11.54;100.00;98553.66;4485261;31;20097;-77
2022/09/12 01:11:52;;;;;;;7.12;4.85;;;;;;;11.55;100.00;98562.34;4485348;31;20103;-77
2022/09/12 01:14:19;;;;;;;10.25;5.47;;;;;;;11.59;100.00;98557.66;4471183;32;20119;-77
2022/09/12 01:16:47;;;;;;;7.60;5.35;;;;;;;11.61;100.00;98572.28;4483888;32;20163;-77
2022/09/12 01:19:36;;;;;;;7.82;5.07;;;;;;;11.60;100.00;98565.38;4483980;32;20184;-77
2022/09/12 01:22:12;;;;;;;9.07;5.15;;;;;;;11.59;100.00;98573.41;4485409;31;20144;-77
2022/09/12 01:24:57;;;;;;;8.07;5.72;;;;;;;11.59;100.00;98573.41;4485241;31;20111;-77
2022/09/12 01:27:53;;;;;;;8.45;5.00;;;;;;;11.61;100.00;98581.94;4484996;31;20582;-77
2022/09/12 01:30:30;;;;;;;11.93;5.50;;;;;;;11.63;100.00;98574.75;4483756;32;20491;-77
2022/09/12 01:33:15;;;;;;;8.05;5.37;;;;;;;11.59;100.00;98573.41;4483950;32;20076;-77
2022/09/12 01:36:01;;;;;;;8.85;5.47;;;;;;;11.51;100.00;98574.97;4485233;31;20096;-77
2022/09/12 01:38:31;;;;;;;8.63;5.35;;;;;;;11.46;100.00;98568.50;4485225;31;20155;-77
2022/09/12 01:41:08;;;;;;;8.13;5.47;;;;;;;11.45;100.00;98575.56;4484031;32;20431;-77
2022/09/12 01:43:47;;;;;;;7.75;5.25;;;;;;;11.46;100.00;98574.59;4485196;31;20106;-77
2022/09/12 01:46:17;;;;;;;8.48;5.87;;;;;;;11.39;100.00;98568.28;4483947;32;20160;-77
2022/09/12 01:48:44;;;;;;;7.32;5.18;;;;;;;11.36;100.00;98569.38;4485047;31;20163;-77
2022/09/12 01:51:22;;;;;;;8.40;5.78;;;;;;;11.35;100.00;98566.91;4485426;32;20093;-77
2022/09/12 01:53:54;;;;;;;9.27;5.82;;;;;;;11.34;100.00;98566.09;4483937;32;20080;-77
2022/09/12 01:56:27;;;;;;;7.80;5.50;;;;;;;11.32;100.00;98578.50;4483629;32;20546;-77
2022/09/12 01:59:35;;;;;;;11.88;6.82;;;;;;;11.34;100.00;98573.97;4483789;32;20213;-77
2022/09/12 02:02:10;;;;;;;7.70;5.55;;;;;;;11.32;100.00;98578.50;4483593;32;20131;-77
2022/09/12 02:04:54;;;;;;;11.23;5.20;;;;;;;11.32;100.00;98575.06;4483576;32;20516;-77
2022/09/12 02:07:47;;;;;;;9.77;6.70;;;;;;;11.36;100.00;98584.31;4493996;31;20096;-77
2022/09/12 02:10:18;;;;;;;9.05;6.28;;;;;;;11.38;100.00;98571.03;4499509;31;20152;-77
2022/09/12 02:12:48;;;;;;;9.45;6.18;;;;;;;11.37;100.00;98578.09;4499386;31;20099;-77
2022/09/12 02:15:18;;;;;;;9.43;6.55;;;;;;;11.39;100.00;98572.69;4500798;31;20684;-77
2022/09/12 02:17:49;;;;;;;11.77;6.68;;;;;;;11.40;100.00;98579.56;4499230;31;20097;-77
2022/09/12 02:20:23;;;;;;;16.80;7.07;;;;;;;11.40;100.00;98575.19;4500740;31;20115;-77
2022/09/12 02:23:15;;;;;;;11.43;7.35;;;;;;;11.37;100.00;98567.59;4499415;31;20092;-77
2022/09/12 02:25:44;;;;;;;10.98;7.25;;;;;;;11.35;100.00;98561.66;4499295;31;20508;-77
2022/09/12 02:28:20;;;;;;;11.50;5.78;;;;;;;11.26;100.00;98563.34;4499984;31;20171;-77
2022/09/12 02:30:59;;;;;;;11.48;6.53;;;;;;;11.25;100.00;98558.25;4499030;31;20406;-77
2022/09/12 02:33:34;;;;;;;11.55;6.87;;;;;;;11.22;100.00;98566.41;4500448;31;20092;-78
2022/09/12 02:36:36;;;;;;;11.18;6.43;;;;;;;11.25;100.00;98560.87;4500562;31;20548;-77
2022/09/12 02:39:03;;;;;;;12.00;6.68;;;;;;;11.21;100.00;98560.37;4435465;32;20120;-77
2022/09/12 02:41:31;;;;;;;10.95;7.15;;;;;;;11.15;100.00;98568.81;4435255;32;20215;-77
2022/09/12 02:43:58;;;;;;;11.05;7.40;;;;;;;11.15;100.00;98567.00;4422579;32;20081;-77
2022/09/12 02:46:31;;;;;;;12.70;7.75;;;;;;;11.17;100.00;98565.09;4435320;32;20109;-77
2022/09/12 02:48:58;;;;;;;12.73;7.43;;;;;;;11.13;100.00;98568.97;4434967;32;20454;-78
2022/09/12 02:51:26;;;;;;;12.13;7.60;;;;;;;11.17;100.00;98564.25;4435159;32;20214;-78
2022/09/12 02:53:53;;;;;;;13.27;7.47;;;;;;;11.13;100.00;98570.78;4422333;32;20657;-77
2022/09/12 02:56:25;;;;;;;14.10;7.85;;;;;;;11.09;100.00;98562.34;4422367;32;20440;-77
2022/09/12 02:58:53;;;;;;;14.02;7.57;;;;;;;11.06;100.00;98567.06;4422324;32;20134;-77
2022/09/12 03:01:28;;;;;;;13.05;7.90;;;;;;;11.03;100.00;98560.31;4434947;32;20117;-77
2022/09/12 03:04:36;;;;;;;12.70;7.75;;;;;;;11.01;100.00;98554.41;4421516;32;20435;-77
2022/09/12 03:07:20;;;;;;;10.98;7.62;;;;;;;10.99;100.00;98557.16;4427548;32;20121;-77
2022/09/12 03:10:37;;;;;;;14.27;7.65;;;;;;;10.99;100.00;98570.28;4434885;32;20479;-77
2022/09/12 03:13:43;;;;;;;15.75;8.05;;;;;;;10.97;100.00;98561.72;4404137;32;20740;-78
2022/09/12 03:16:34;;;;;;;16.08;8.48;;;;;;;10.97;100.00;98563.50;4429936;32;20118;-77
2022/09/12 03:19:23;;;;;;;12.50;7.93;;;;;;;10.98;100.00;98559.94;4438289;32;20158;-77
2022/09/12 03:21:59;;;;;;;14.57;7.72;;;;;;;10.98;100.00;98566.00;4439693;32;20129;-77
2022/09/12 03:24:36;;;;;;;14.35;8.30;;;;;;;10.95;100.00;98573.31;4452373;32;20164;-77
2022/09/12 03:27:08;;;;;;;14.10;8.15;;;;;;;10.90;100.00;98572.91;4452504;32;20195;-77
2022/09/12 03:29:37;;;;;;;14.63;8.25;;;;;;;10.87;100.00;98578.44;4439555;32;20485;-77
2022/09/12 03:32:04;;;;;;;12.15;7.43;;;;;;;10.87;100.00;98579.28;4439453;32;20094;-77
2022/09/12 03:34:31;;;;;;;14.90;8.25;;;;;;;10.86;100.00;98569.78;4452577;32;20113;-77
2022/09/12 03:36:58;;;;;;;12.63;7.03;;;;;;;10.84;100.00;98576.97;4452508;32;20108;-77
2022/09/12 03:39:26;;;;;;;14.25;7.60;;;;;;;10.87;100.00;98579.28;4452244;32;20500;-77
2022/09/12 03:41:54;;;;;;;13.70;7.93;;;;;;;10.89;100.00;98577.34;4452283;32;20092;-77
2022/09/12 03:44:22;;;;;;;13.25;7.47;;;;;;;10.89;100.00;98579.16;4452304;32;20125;-77
2022/09/12 03:46:49;;;;;;;15.75;8.30;;;;;;;10.87;100.00;98578.44;4470490;31;20140;-77
2022/09/12 03:49:17;;;;;;;14.35;8.05;;;;;;;10.87;100.00;98575.81;4501658;31;20187;-77
2022/09/12 03:51:44;;;;;;;12.45;7.50;;;;;;;10.86;100.00;98577.63;4501691;31;20117;-77
2022/09/12 03:54:11;;;;;;;16.05;8.10;;;;;;;10.84;100.00;98574.34;4501742;31;20122;-77
2022/09/12 03:56:40;;;;;;;12.82;7.80;;;;;;;10.85;100.00;98567.28;4501576;31;20112;-77
2022/09/12 03:59:07;;;;;;;16.83;8.50;;;;;;;10.84;100.00;98590.06;4501431;31;20095;-77
2022/09/12 04:01:34;;;;;;;12.85;7.35;;;;;;;10.83;100.00;98586.59;4491381;31;20101;-77
2022/09/12 04:04:02;;;;;;;15.63;7.87;;;;;;;10.85;100.00;98580.41;4492299;31;20097;-77
2022/09/12 04:06:30;;;;;;;12.75;7.35;;;;;;;10.79;100.00;98593.09;4492554;31;20202;-77
2022/09/12 04:08:57;;;;;;;15.55;8.25;;;;;;;10.79;100.00;98598.31;4485690;31;20453;-77
2022/09/12 04:11:24;;;;;;;14.80;7.35;;;;;;;10.86;100.00;98603.03;4485523;31;20105;-75
2022/09/12 04:13:51;;;;;;;13.82;7.12;;;;;;;10.94;100.00;98600.50;4496693;31;20084;-74
2022/09/12 04:16:19;;;;;;;12.05;7.30;;;;;;;11.04;100.00;98596.06;4491274;31;20127;-75
2022/09/12 04:18:46;;;;;;;12.95;7.87;;;;;;;11.03;100.00;98590.94;4491517;31;20496;-75
2022/09/12 04:21:16;;;;;;;14.48;8.30;;;;;;;11.04;100.00;98585.56;4499728;31;20584;-75
2022/09/12 04:23:43;;;;;;;12.37;7.65;;;;;;;11.02;100.00;98590.09;4500283;31;20516;-75
2022/09/12 04:26:12;;;;;;;14.00;7.93;;;;;;;11.04;100.00;98588.19;4498793;31;20468;-75
2022/09/12 04:28:40;;;;;;;12.60;7.75;;;;;;;11.03;100.00;98589.16;4484129;31;20115;-75
2022/09/12 04:31:11;;;;;;;13.55;7.75;;;;;;;11.07;100.00;98580.03;4493510;31;20134;-75
2022/09/12 04:33:38;;;;;;;11.85;6.87;;;;;;;11.02;100.00;98579.62;4496132;31;20471;-75
2022/09/12 04:36:10;;;;;;;16.67;7.97;;;;;;;11.00;100.00;98581.56;4493004;31;20171;-75
2022/09/12 04:38:37;;;;;;;12.80;7.57;;;;;;;10.98;100.00;98584.34;4487461;31;20171;-75
2022/09/12 04:41:12;;;;;;;15.32;8.20;;;;;;;11.00;100.00;98587.62;4498494;31;20104;-75
2022/09/12 04:43:39;;;;;;;11.40;6.68;;;;;;;11.05;100.00;98597.69;4501238;31;20096;-75
2022/09/12 04:46:11;;;;;;;14.10;8.30;;;;;;;11.03;100.00;98591.75;4498947;31;20121;-75
2022/09/12 04:48:38;;;;;;;14.65;7.87;;;;;;;11.06;100.00;98593.28;4501317;31;20087;-75
2022/09/12 04:51:12;;;;;;;13.93;8.30;;;;;;;11.07;100.00;98594.94;4495443;31;20112;-75
2022/09/12 04:53:40;;;;;;;15.93;7.57;;;;;;;11.13;100.00;98592.56;4491367;31;20127;-75
2022/09/12 04:56:09;;;;;;;16.25;8.10;;;;;;;11.15;100.00;98611.59;4497026;31;20143;-77
2022/09/12 04:58:36;;;;;;;15.18;8.05;;;;;;;11.16;100.00;98604.56;4497936;31;20119;-77
2022/09/12 05:01:12;;;;;;;13.05;8.70;;;;;;;11.18;100.00;98608.66;4498192;31;20210;-80
2022/09/12 05:03:44;;;;;;;16.87;8.07;;;;;;;11.27;100.00;98609.59;4498855;31;20110;-78
2022/09/12 05:06:17;;;;;;;13.32;8.18;;;;;;;11.23;100.00;98616.09;4490369;31;20490;-79
2022/09/12 05:08:44;;;;;;;14.23;7.72;;;;;;;11.26;100.00;98609.75;4497941;31;20182;-79
2022/09/12 05:11:14;;;;;;;12.77;7.68;;;;;;;11.26;100.00;98610.56;4496780;31;20228;-78
2022/09/12 05:13:42;;;;;;;14.75;8.60;;;;;;;11.36;100.00;98610.53;4498735;31;20217;-78
2022/09/12 05:16:11;;;;;;;17.48;8.02;;;;;;;11.44;100.00;98612.41;4498282;31;20668;-78
2022/09/12 05:18:38;;;;;;;14.85;8.23;;;;;;;11.57;100.00;98609.44;4490522;31;20437;-78
2022/09/12 05:21:08;;;;;;;16.65;8.13;;;;;;;11.62;100.00;98618.53;4493243;31;20096;-77
2022/09/12 05:23:35;;;;;;;14.77;8.77;;;;;;;11.76;100.00;98624.25;4496615;31;20122;-78
2022/09/12 05:26:04;;;;;;;15.68;8.52;;;;;;;11.78;100.00;98625.75;4493300;31;20167;-77
2022/09/12 05:28:34;;;;;;;20.95;7.68;;;;;;;11.85;100.00;98631.22;4491496;31;20545;-77
2022/09/12 05:31:13;;;;;;;15.40;8.98;;;;;;;11.85;100.00;98628.59;4492083;31;20148;-75
2022/09/12 05:33:43;;;;;;;19.52;8.55;;;;;;;11.90;100.00;98627.19;4494182;31;20208;-78
2022/09/12 05:36:12;;;;;;;16.10;8.63;;;;;;;11.98;100.00;98634.34;4493400;31;20943;-77
2022/09/12 05:38:39;;;;;;;18.62;8.57;;;;;;;11.98;100.00;98636.16;4492581;31;20096;-78
2022/09/12 05:41:10;;;;;;;14.30;8.25;;;;;;;11.98;100.00;98636.16;4497226;31;20142;-78
2022/09/12 05:43:44;;;;;;;15.02;8.35;;;;;;;12.05;100.00;98639.81;4492893;31;20096;-78
2022/09/12 05:46:15;;;;;;;16.48;9.00;;;;;;;12.07;100.00;98643.13;4485801;31;20147;-79
2022/09/12 05:48:44;;;;;;;14.13;8.20;;;;;;;12.10;100.00;98640.22;4495076;31;20458;-78
2022/09/12 05:51:18;;;;;;;15.25;8.75;;;;;;;12.12;100.00;98637.44;4494825;31;20121;-78
2022/09/12 05:53:47;;;;;;;16.37;9.15;;;;;;;12.19;100.00;98641.94;4496449;31;20111;-77
2022/09/12 05:56:17;;;;;;;12.88;8.02;;;;;;;12.21;100.00;98642.59;4495427;31;20097;-77
2022/09/12 05:58:46;;;;;;;17.48;9.00;;;;;;;12.29;100.00;98644.47;4495415;31;20104;-78
2022/09/12 06:01:15;;;;;;;15.48;9.18;;;;;;;12.35;100.00;98640.41;4495388;31;20130;-79
2022/09/12 06:03:44;;;;;;;15.43;9.30;;;;;;;12.40;100.00;98648.69;4491583;31;20126;-79
2022/09/12 06:06:14;;;;;;;15.43;8.55;;;;;;;12.43;100.00;98646.56;4487126;31;224816;-79
2022/09/12 06:08:43;;;;;;;14.25;8.88;;;;;;;12.47;100.00;98656.78;4492959;31;20095;-78
2022/09/12 06:11:17;;;;;;;13.60;9.38;;;;;;;12.55;100.00;98641.91;4485055;31;20645;-78
2022/09/12 06:13:44;;;;;;;15.30;8.10;;;;;;;12.60;100.00;98652.75;4489833;31;20496;-76
2022/09/12 06:16:14;;;;;;;17.02;8.57;;;;;;;12.71;100.00;98650.88;4495595;31;20556;-75
2022/09/12 06:18:46;;;;;;;15.23;8.20;;;;;;;12.86;100.00;98654.59;4494683;31;20147;-75
2022/09/12 06:21:14;;;;;;;14.70;7.93;;;;;;;12.95;100.00;98656.28;4491243;31;21052;-76
2022/09/12 06:23:41;;;;;;;15.43;9.07;;;;;;;13.08;100.00;98661.13;4494703;31;20127;-77
2022/09/12 06:26:09;;;;;;;13.52;8.50;;;;;;;13.18;100.00;98661.00;4493041;31;20121;-77
2022/09/12 06:28:39;;;;;;;14.05;8.23;;;;;;;13.35;100.00;98656.69;4495703;31;20164;-75
2022/09/12 06:31:12;;;;;;;12.52;7.82;;;;;;;13.53;100.00;98661.03;4493902;31;20148;-76
2022/09/12 06:33:43;;;;;;;13.67;8.00;;;;;;;13.64;100.00;98653.69;4497187;31;20118;-77
2022/09/12 06:36:12;;;;;;;15.45;8.15;;;;;;;13.72;100.00;98654.72;4497719;31;20139;-80
2022/09/12 06:38:40;;;;;;;13.90;8.38;;;;;;;13.74;100.00;98650.09;4498134;31;20491;-78
2022/09/12 06:41:10;;;;;;;15.48;8.55;;;;;;;13.82;100.00;98658.00;4496299;31;21958;-79
2022/09/12 06:43:38;;;;;;;13.13;8.60;;;;;;;13.81;100.00;98661.63;4493833;31;20087;-80
2022/09/12 06:46:06;;;;;;;12.18;7.50;;;;;;;13.81;100.00;98670.34;4493069;31;20188;-79
2022/09/12 06:48:33;;;;;;;16.98;8.35;;;;;;;13.79;100.00;98666.22;4494596;31;20095;-79
2022/09/12 06:51:12;;;;;;;11.98;8.18;;;;;;;13.82;100.00;98663.25;4498871;31;20484;-75
2022/09/12 06:53:40;;;;;;;11.38;7.40;;;;;;;13.84;100.00;98667.41;4491776;31;20108;-75
2022/09/12 06:56:13;;;;;;;15.35;8.27;;;;;;;13.93;100.00;98667.41;4494951;31;20100;-77
2022/09/12 06:58:42;;;;;;;13.07;8.10;;;;;;;13.96;100.00;98667.09;4498955;31;20159;-76
2022/09/12 07:01:12;;;;;;;16.17;8.27;;;;;;;14.08;100.00;98663.19;4497169;31;20469;-75
2022/09/12 07:03:40;;;;;;;12.60;6.90;;;;;;;14.18;100.00;98663.00;4495820;31;20103;-75
2022/09/12 07:06:09;;;;;;;12.50;7.32;;;;;;;14.30;100.00;98653.81;4498051;31;20578;-75
2022/09/12 07:08:38;;;;;;;12.98;7.12;;;;;;;14.40;100.00;98663.34;4498696;31;20085;-77
2022/09/12 07:11:11;;;;;;;12.32;7.28;;;;;;;14.57;100.00;98666.84;4492916;31;20231;-75
2022/09/12 07:13:39;;;;;;;9.25;6.72;;;;;;;14.66;100.00;98674.59;4491672;31;20150;-75
2022/09/12 07:16:06;;;;;;;11.63;6.40;;;;;;;14.80;100.00;98669.66;4497866;31;20112;-76
2022/09/12 07:18:33;;;;;;;13.15;7.20;;;;;;;14.92;100.00;98670.94;4493663;31;20125;-78
2022/09/12 07:21:02;;;;;;;11.50;6.53;;;;;;;14.94;100.00;98670.78;4492671;31;20206;-77
2022/09/12 07:23:29;;;;;;;10.80;6.30;;;;;;;14.94;100.00;98674.22;4493504;31;20259;-75
2022/09/12 07:25:57;;;;;;;10.27;6.18;;;;;;;15.00;100.00;98668.28;4489320;31;20396;-78
2022/09/12 07:28:30;;;;;;;9.52;5.65;;;;;;;15.06;100.00;98672.06;4491485;31;20103;-76
2022/09/12 07:30:58;;;;;;;10.10;5.90;;;;;;;15.23;100.00;98684.25;4490089;31;20493;-76
2022/09/12 07:33:27;;;;;;;9.48;5.57;;;;;;;15.23;100.00;98678.97;4490372;31;20127;-75
2022/09/12 07:35:54;;;;;;;7.50;4.97;;;;;;;15.35;100.00;98682.06;4491939;31;20131;-75
2022/09/12 07:38:21;;;;;;;7.93;5.50;;;;;;;15.52;100.00;98687.25;4495317;31;20377;-78
2022/09/12 07:40:49;;;;;;;8.95;5.00;;;;;;;15.59;100.00;98682.97;4501084;31;20123;-77
2022/09/12 07:43:16;;;;;;;8.55;6.12;;;;;;;15.64;100.00;98685.09;4497576;31;20144;-77
2022/09/12 07:45:43;;;;;;;9.38;4.80;;;;;;;15.78;100.00;98694.97;4494375;31;20377;-77
2022/09/12 07:48:10;;;;;;;8.70;5.10;;;;;;;15.87;100.00;98687.84;4495264;31;20544;-78
2022/09/12 07:50:37;;;;;;;7.47;4.50;;;;;;;15.85;100.00;98690.66;4495956;31;20152;-78
2022/09/12 07:53:11;;;;;;;7.25;4.97;;;;;;;15.84;100.00;98690.81;4488782;31;20148;-76
2022/09/12 07:55:38;;;;;;;8.60;4.70;;;;;;;16.00;100.00;98696.00;4492869;31;20189;-77
2022/09/12 07:58:05;;;;;;;17.77;6.22;;;;;;;16.13;100.00;98698.88;4494311;31;20150;-76
2022/09/12 08:00:35;;;;;;;12.85;5.90;;;;;;;16.15;100.00;98696.06;4493050;31;20092;-78
2022/09/12 08:03:03;;;;;;;7.95;4.93;;;;;;;16.19;100.00;98701.84;4496539;31;20716;-79
2022/09/12 08:05:30;;;;;;;7.70;4.95;;;;;;;16.33;99.65;98690.50;4495865;31;20092;-78
2022/09/12 08:07:57;;;;;;;5.00;3.67;;;;;;;16.28;100.00;98692.88;4493527;31;20092;-79
2022/09/12 08:10:24;;;;;;;5.03;3.62;;;;;;;16.52;94.77;98691.88;4495318;31;20103;-79
2022/09/12 08:12:52;;;;;;;5.93;3.60;;;;;;;16.53;91.10;98693.50;4492780;31;20573;-79
2022/09/12 08:15:19;;;;;;;6.12;3.80;;;;;;;16.49;92.64;98695.69;4499738;31;20621;-79
2022/09/12 08:17:46;;;;;;;3.83;3.08;;;;;;;16.60;90.63;98683.84;4492825;31;20189;-80
2022/09/12 08:20:13;;;;;;;5.80;3.03;;;;;;;16.80;91.58;98696.59;4496265;31;20110;-80
2022/09/12 08:22:41;;;;;;;4.35;3.03;;;;;;;16.95;89.20;98700.09;4490216;31;20490;-79
2022/09/12 08:25:08;;;;;;;4.20;2.75;;;;;;;16.84;89.05;98685.47;4489478;31;20096;-78
2022/09/12 08:27:36;;;;;;;3.47;2.72;;;;;;;16.85;86.15;98691.56;4494566;31;20562;-78
2022/09/12 08:30:05;;;;;;;4.47;3.25;;;;;;;17.00;85.86;98695.13;4498501;31;20096;-79
2022/09/12 08:32:35;;;;;;;3.62;2.72;;;;;;;17.09;86.16;98695.03;4488902;31;20092;-78
2022/09/12 08:35:03;;;;;;;6.05;3.33;;;;;;;17.19;82.89;98691.09;4497912;31;20084;-78
2022/09/12 08:37:30;;;;;;;7.80;3.80;;;;;;;17.25;82.62;98704.63;4497319;31;20377;-78
2022/09/12 08:39:58;;;;;;;4.28;3.05;;;;;;;17.32;83.71;98694.94;4496287;31;20163;-78
2022/09/12 08:42:48;;;;;;;4.90;2.65;;;;;;;17.35;84.08;98710.47;4494017;31;20108;-78
2022/09/12 08:45:35;;;;;;;4.35;2.87;;;;;;;17.32;82.38;98701.06;4476934;32;20116;-79
2022/09/12 08:48:04;;;;;;;7.93;3.10;;;;;;;17.43;83.01;98702.44;4488406;31;20100;-78
2022/09/12 08:50:31;;;;;;;4.10;2.20;;;;;;;17.49;81.13;98691.13;4487288;31;20180;-77
2022/09/12 08:53:02;;;;;;;3.53;2.67;;;;;;;17.59;75.41;98704.06;4485179;31;20105;-78
2022/09/12 08:55:31;;;;;;;3.15;2.45;;;;;;;17.52;77.75;98696.03;4489433;31;20469;-78
2022/09/12 08:58:01;;;;;;;5.78;2.78;;;;;;;17.56;80.10;98691.19;4490886;31;20772;-78
2022/09/12 09:00:36;;;;;;;5.03;2.72;;;;;;;17.60;78.10;98689.00;4497408;31;20130;-77
2022/09/12 09:03:15;;;;;;;5.30;2.92;;;;;;;17.72;78.76;98691.00;4496465;31;20096;-78
2022/09/12 09:05:50;;;;;;;5.60;2.80;;;;;;;17.77;76.86;98687.78;4481766;31;20119;-78
2022/09/12 09:08:17;;;;;;;4.55;2.25;;;;;;;17.95;79.47;98683.97;4485877;31;20130;-79
2022/09/12 09:10:53;;;;;;;5.90;2.05;;;;;;;18.16;74.61;98676.03;4494953;31;20200;-78
2022/09/12 09:16:34;;;;;;;2.80;2.40;;;;;;;18.27;74.28;98686.16;4488713;31;20088;-77
2022/09/12 09:19:04;;;;;;;2.55;2.10;;;;;;;18.38;74.63;98687.47;4484084;31;20129;-79
2022/09/12 09:21:40;;;;;;;3.45;2.42;;;;;;;18.33;73.21;98681.09;4487649;31;20112;-77
2022/09/12 09:24:13;;;;;;;3.85;2.40;;;;;;;18.41;77.31;98678.28;4484215;31;20101;-76
2022/09/12 09:27:00;;;;;;;3.85;2.17;;;;;;;18.36;72.94;98691.31;4494864;31;20569;-78
2022/09/12 09:29:40;;;;;;;3.53;2.25;;;;;;;18.25;71.38;98677.53;4488686;31;20114;-78
2022/09/12 09:32:18;;;;;;;3.05;2.08;;;;;;;18.29;71.25;98677.16;4492004;31;20143;-77
2022/09/12 09:34:45;;;;;;;5.10;1.90;;;;;;;18.53;72.66;98675.94;4487400;31;20083;-77
2022/09/12 09:37:20;;;;;;;4.82;2.53;;;;;;;18.68;72.02;98678.53;4487666;31;20946;-77
2022/09/12 09:39:53;;;;;;;4.75;2.45;;;;;;;19.01;74.20;98680.66;4484673;31;20714;-77
2022/09/12 09:42:26;;;;;;;2.60;2.00;;;;;;;19.17;71.24;98682.19;4487893;31;20156;-76
2022/09/12 09:44:56;;;;;;;3.45;2.47;;;;;;;19.21;69.75;98680.78;4495541;31;20118;-78
2022/09/12 09:47:23;;;;;;;2.85;2.00;;;;;;;19.04;70.58;98681.06;4494757;31;20118;-77
2022/09/12 09:49:50;;;;;;;2.80;2.00;;;;;;;19.24;69.24;98677.72;4494290;31;20167;-77
2022/09/12 09:52:24;;;;;;;5.40;2.35;;;;;;;18.90;69.28;98688.13;4498561;31;20115;-78
2022/09/12 09:54:57;;;;;;;3.70;2.20;;;;;;;19.11;69.50;98691.75;4495686;31;20464;-80
2022/09/12 09:57:34;;;;;;;3.47;2.50;;;;;;;19.40;69.04;98679.25;4483175;31;20088;-78
2022/09/12 10:00:21;;;;;;;2.90;2.12;;;;;;;19.80;66.79;98680.28;4498910;31;20096;-77
2022/09/12 10:03:13;;;;;;;2.55;2.08;;;;;;;19.37;65.32;98683.13;4493751;31;20873;-78
2022/09/12 10:05:47;;;;;;;3.33;2.42;;;;;;;18.95;69.23;98671.62;4491548;31;20599;-75
2022/09/12 10:08:25;;;;;;;4.97;2.15;;;;;;;18.53;69.51;98682.09;4496483;31;20607;-77
2022/09/12 10:11:21;;;;;;;4.12;2.40;;;;;;;18.31;71.11;98675.16;4490158;31;20088;-78
2022/09/12 10:13:55;;;;;;;4.03;2.45;;;;;;;18.44;71.38;98673.44;4494113;31;20092;-78
2022/09/12 10:16:26;;;;;;;3.05;2.03;;;;;;;19.09;70.87;98672.53;4493692;31;20660;-78
2022/09/12 10:19:01;;;;;;;4.32;2.78;;;;;;;19.37;69.65;98677.00;4495625;31;20092;-77
2022/09/12 10:21:50;;;;;;;5.07;2.25;;;;;;;19.13;67.16;98674.59;4493387;31;20130;-79
2022/09/12 10:24:27;;;;;;;2.92;2.35;;;;;;;18.75;68.21;98671.44;4490955;31;20708;-78
2022/09/12 10:27:12;;;;;;;2.42;2.17;;;;;;;18.56;69.67;98679.06;4496559;31;20088;-77
2022/09/12 10:30:16;;;;;;;3.55;2.92;;;;;;;18.41;72.60;98680.94;4496631;31;20123;-76
2022/09/12 10:32:51;;;;;;;3.93;2.70;;;;;;;18.30;75.76;98687.56;4475063;31;20557;-79
2022/09/12 10:35:21;;;;;;;4.05;3.00;;;;;;;18.42;76.48;98683.41;4494544;31;20163;-78
2022/09/12 10:37:55;;;;;;;5.82;3.45;;;;;;;18.42;77.31;98679.94;4497076;31;20588;-79
2022/09/12 10:40:26;;;;;;;3.97;2.80;;;;;;;18.49;78.16;98680.03;4495814;31;20099;-82
2022/09/12 10:42:57;;;;;;;4.43;3.12;;;;;;;18.53;77.43;98682.09;4496938;31;20125;-81
2022/09/12 10:45:36;;;;;;;4.32;3.15;;;;;;;18.49;77.39;98682.69;4486531;31;20100;-82
2022/09/12 10:48:27;;;;;;;5.78;2.83;;;;;;;18.50;78.44;98671.88;4493776;31;20084;-83
2022/09/12 10:50:58;;;;;;;7.53;2.90;;;;;;;18.27;77.94;98674.69;4495962;31;20107;-83
2022/09/12 10:53:47;;;;;;;3.95;2.67;;;;;;;18.01;78.67;98677.91;4490073;31;20441;-84
2022/09/12 10:56:19;;;;;;;4.32;2.55;;;;;;;18.00;79.69;98685.03;4495366;31;20140;-82
2022/09/12 10:59:10;;;;;;;4.22;2.80;;;;;;;17.98;80.38;98684.38;4483829;31;20129;-85
2022/09/12 11:01:40;;;;;;;5.00;2.72;;;;;;;18.00;79.95;98678.91;4497199;31;20112;-81
2022/09/12 11:04:29;;;;;;;3.25;2.58;;;;;;;18.22;78.82;98682.41;4495755;31;20499;-80
2022/09/12 11:07:15;;;;;;;4.87;2.95;;;;;;;18.09;78.32;98680.44;4490073;31;20104;-81
2022/09/12 11:09:45;;;;;;;7.28;3.08;;;;;;;18.21;79.11;98678.09;4495966;31;20107;-80
2022/09/12 11:12:46;;;;;;;4.75;3.08;;;;;;;18.34;78.65;98688.03;4492338;31;20116;-84
2022/09/12 11:15:28;;;;;;;3.15;2.40;;;;;;;18.42;78.70;98675.44;4482765;32;20111;-84
2022/09/12 11:18:06;;;;;;;4.60;2.80;;;;;;;18.47;76.92;98674.91;4497000;31;20104;-84
2022/09/12 11:20:58;;;;;;;3.83;3.03;;;;;;;18.43;78.72;98673.63;4496932;31;20092;-82
2022/09/12 11:23:34;;;;;;;3.85;2.87;;;;;;;18.19;79.03;98665.03;4492677;31;20114;-82
2022/09/12 11:26:17;;;;;;;3.75;2.60;;;;;;;18.10;79.84;98671.47;4489691;31;20111;-81
2022/09/12 11:29:15;;;;;;;3.75;2.80;;;;;;;18.01;79.16;98670.75;4486551;31;20105;-81
2022/09/12 11:31:53;;;;;;;3.10;2.53;;;;;;;17.93;78.48;98676.19;4494722;31;20087;-82
2022/09/12 11:34:33;;;;;;;3.58;2.90;;;;;;;17.84;79.28;98682.59;4496775;31;20898;-82
2022/09/12 11:37:30;;;;;;;4.75;3.22;;;;;;;17.82;81.33;98676.63;4485198;31;20088;-83
2022/09/12 11:40:05;;;;;;;4.62;3.28;;;;;;;17.76;82.02;98678.22;4482701;31;20169;-83
2022/09/12 11:42:36;;;;;;;6.78;3.08;;;;;;;17.57;83.81;98676.94;4490771;31;20096;-83
2022/09/12 11:45:28;;;;;;;4.30;3.30;;;;;;;17.44;83.71;98682.91;4487988;31;20102;-83
2022/09/12 11:47:58;;;;;;;5.43;3.28;;;;;;;17.44;84.88;98674.97;4480396;32;20175;-83
2022/09/12 11:50:28;;;;;;;5.32;3.50;;;;;;;17.42;85.74;98674.31;4480877;31;20175;-81
2022/09/12 11:53:01;;;;;;;4.20;3.30;;;;;;;17.40;86.55;98681.63;4480445;32;20238;-82
2022/09/12 11:55:36;;;;;;;6.78;3.83;;;;;;;17.44;86.82;98677.63;4480781;31;20693;-83